Time;durP1;ratioP1;P1;durP2;ratioP2;P2;SDS_P1;SDS_P2;PMS_P1;PMS_P2;Temp;Humidity;BMP_temperature;BMP_pressure;BME280_temperature;BME280_humidity;BME280_pressure;Samples;Min_cycle;Max_cycle;Signal;HPM_P1;HPM_P2
2022/08/07 00:01:08;;;;;;;3.13;1.40;;;;;;;;;;5095685;28;20059;-59
2022/08/07 00:03:35;;;;;;;3.83;1.10;;;;;;;;;;5091026;28;20060;-60
2022/08/07 00:06:01;;;;;;;2.30;1.10;;;;;;;;;;5097894;28;20460;-58
2022/08/07 00:08:27;;;;;;;2.53;1.58;;;;;;;;;;5097542;28;20099;-59
2022/08/07 00:10:53;;;;;;;6.43;1.50;;;;;;;;;;5089899;28;20107;-58
2022/08/07 00:13:20;;;;;;;4.03;1.40;;;;;;;;;;5084730;28;20046;-59
2022/08/07 00:15:46;;;;;;;2.08;1.42;;;;;;;;;;5074499;28;20028;-59
2022/08/07 00:18:14;;;;;;;5.18;1.42;;;;;;;;;;5085105;28;20036;-59
2022/08/07 00:20:40;;;;;;;3.00;1.38;;;;;;;;;;5093481;28;20023;-59
2022/08/07 00:23:06;;;;;;;4.78;1.65;;;;;;;;;;5079471;28;20432;-59
2022/08/07 00:25:32;;;;;;;6.07;1.90;;;;;;;;;;5085561;28;20074;-59
2022/08/07 00:27:58;;;;;;;4.22;1.50;;;;;;;;;;5084334;28;20038;-59
2022/08/07 00:30:25;;;;;;;3.05;1.40;;;;;;;;;;5084323;28;20068;-59
2022/08/07 00:32:51;;;;;;;2.17;1.20;;;;;;;;;;5085099;28;20127;-59
2022/08/07 00:35:17;;;;;;;3.53;1.50;;;;;;;;;;5073890;28;20103;-60
2022/08/07 00:37:43;;;;;;;2.92;1.45;;;;;;;;;;5084899;28;20059;-59
2022/08/07 00:40:10;;;;;;;4.43;2.05;;;;;;;;;;5093398;28;20058;-58
2022/08/07 00:42:36;;;;;;;5.93;1.40;;;;;;;;;;5091893;28;20024;-58
2022/08/07 00:45:03;;;;;;;3.97;1.58;;;;;;;;;;5073575;28;20024;-58
2022/08/07 00:47:29;;;;;;;8.77;1.90;;;;;;;;;;5081909;28;20035;-58
2022/08/07 00:49:55;;;;;;;3.35;1.90;;;;;;;;;;5079959;28;20036;-59
2022/08/07 00:52:21;;;;;;;3.00;1.50;;;;;;;;;;5093413;28;20035;-59
2022/08/07 00:54:47;;;;;;;5.15;1.52;;;;;;;;;;5092833;28;20106;-59
2022/08/07 00:57:13;;;;;;;4.85;1.67;;;;;;;;;;5093379;28;20432;-61
2022/08/07 00:59:39;;;;;;;3.97;1.55;;;;;;;;;;5092055;28;20161;-59
2022/08/07 01:02:06;;;;;;;4.32;1.65;;;;;;;;;;5089688;28;20084;-59
2022/08/07 01:04:32;;;;;;;2.22;1.48;;;;;;;;;;5082767;28;20028;-59
2022/08/07 01:06:58;;;;;;;3.70;1.90;;;;;;;;;;5077038;28;20033;-59
2022/08/07 01:09:24;;;;;;;3.35;1.60;;;;;;;;;;5078696;28;20063;-58
2022/08/07 01:11:51;;;;;;;3.22;1.75;;;;;;;;;;5090970;28;20036;-59
2022/08/07 01:14:19;;;;;;;2.47;1.50;;;;;;;;;;5090673;28;20027;-60
2022/08/07 01:16:44;;;;;;;3.80;1.73;;;;;;;;;;5085777;28;20446;-59
2022/08/07 01:19:11;;;;;;;3.78;1.60;;;;;;;;;;5078012;28;20157;-58
2022/08/07 01:21:37;;;;;;;3.72;1.40;;;;;;;;;;5079941;28;20104;-58
2022/08/07 01:24:04;;;;;;;3.42;1.48;;;;;;;;;;5072504;28;20028;-60
2022/08/07 01:26:30;;;;;;;4.88;1.67;;;;;;;;;;5085216;28;20365;-59
2022/08/07 01:28:56;;;;;;;2.72;1.40;;;;;;;;;;5087231;28;20475;-58
2022/08/07 01:31:32;;;;;;;4.40;1.48;;;;;;;;;;5085190;28;20033;-61
2022/08/07 01:34:01;;;;;;;7.50;2.03;;;;;;;;;;5074542;28;20036;-58
2022/08/07 01:36:28;;;;;;;6.57;1.90;;;;;;;;;;5085705;28;20111;-58
2022/08/07 01:38:55;;;;;;;2.63;1.70;;;;;;;;;;5092081;28;20115;-59
2022/08/07 01:41:21;;;;;;;5.97;2.00;;;;;;;;;;5083902;28;20020;-58
2022/08/07 01:43:48;;;;;;;3.42;1.80;;;;;;;;;;5072057;28;20031;-58
2022/08/07 01:46:15;;;;;;;3.38;1.60;;;;;;;;;;5073681;28;20029;-58
2022/08/07 01:48:45;;;;;;;6.10;2.20;;;;;;;;;;5090567;28;20028;-59
2022/08/07 01:51:12;;;;;;;6.95;1.80;;;;;;;;;;5090693;28;20043;-59
2022/08/07 01:53:40;;;;;;;3.03;1.92;;;;;;;;;;5089218;28;20036;-58
2022/08/07 01:56:08;;;;;;;7.18;2.33;;;;;;;;;;5083587;28;20047;-61
2022/08/07 01:58:37;;;;;;;2.38;1.58;;;;;;;;;;5077131;28;20037;-58
2022/08/07 02:01:06;;;;;;;7.03;2.50;;;;;;;;;;5083037;28;20118;-59
2022/08/07 02:03:34;;;;;;;4.13;1.98;;;;;;;;;;5085464;28;20024;-59
2022/08/07 02:06:04;;;;;;;3.03;1.70;;;;;;;;;;5090392;28;20046;-59
2022/08/07 02:08:34;;;;;;;2.72;1.63;;;;;;;;;;5075318;28;20043;-58
2022/08/07 02:11:00;;;;;;;3.60;1.85;;;;;;;;;;5090687;28;20028;-59
2022/08/07 02:13:29;;;;;;;5.07;2.05;;;;;;;;;;5077320;28;20483;-59
2022/08/07 02:15:56;;;;;;;3.33;1.70;;;;;;;;;;5091629;28;20027;-59
2022/08/07 02:18:22;;;;;;;3.22;1.83;;;;;;;;;;5082957;28;20157;-60
2022/08/07 02:20:50;;;;;;;4.38;1.83;;;;;;;;;;5087092;28;20063;-59
2022/08/07 02:23:16;;;;;;;5.85;1.80;;;;;;;;;;5085178;28;20668;-59
2022/08/07 02:25:43;;;;;;;3.22;1.95;;;;;;;;;;5089996;28;20040;-59
2022/08/07 02:28:10;;;;;;;5.45;2.30;;;;;;;;;;5078873;28;20038;-58
2022/08/07 02:30:38;;;;;;;4.45;2.03;;;;;;;;;;5090529;28;20108;-58
2022/08/07 02:33:05;;;;;;;3.58;2.42;;;;;;;;;;5089819;28;20245;-58
2022/08/07 02:35:32;;;;;;;3.42;1.83;;;;;;;;;;5091341;28;20527;-58
2022/08/07 02:37:59;;;;;;;4.07;1.63;;;;;;;;;;5080818;28;20028;-59
2022/08/07 02:40:25;;;;;;;2.70;1.90;;;;;;;;;;5075204;28;20388;-59
2022/08/07 02:42:51;;;;;;;3.10;2.03;;;;;;;;;;5077823;28;20054;-59
2022/08/07 02:45:19;;;;;;;2.90;1.73;;;;;;;;;;5091036;28;20028;-59
2022/08/07 02:47:45;;;;;;;3.92;2.50;;;;;;;;;;5089862;28;20119;-58
2022/08/07 02:50:11;;;;;;;4.32;2.13;;;;;;;;;;5086652;28;20024;-59
2022/08/07 02:52:52;;;;;;;4.95;1.92;;;;;;;;;;5086344;28;20135;-58
2022/08/07 02:55:21;;;;;;;3.05;1.92;;;;;;;;;;5077000;28;20031;-58
2022/08/07 02:57:48;;;;;;;4.40;2.15;;;;;;;;;;5087355;28;20036;-59
2022/08/07 03:00:15;;;;;;;3.30;1.98;;;;;;;;;;5087317;28;20035;-59
2022/08/07 03:02:42;;;;;;;3.00;2.00;;;;;;;;;;5091048;28;20088;-58
2022/08/07 03:05:08;;;;;;;4.45;2.05;;;;;;;;;;5087551;28;20031;-59
2022/08/07 03:07:35;;;;;;;3.53;1.98;;;;;;;;;;5076107;28;20042;-59
2022/08/07 03:10:01;;;;;;;4.28;2.20;;;;;;;;;;5090574;28;20099;-59
2022/08/07 03:12:28;;;;;;;2.78;1.98;;;;;;;;;;5090239;28;20533;-59
2022/08/07 03:14:55;;;;;;;5.22;2.25;;;;;;;;;;5074606;28;20097;-59
2022/08/07 03:17:21;;;;;;;2.72;2.15;;;;;;;;;;5089620;28;20028;-59
2022/08/07 03:19:47;;;;;;;3.58;2.00;;;;;;;;;;5090474;28;20028;-59
2022/08/07 03:22:13;;;;;;;4.28;2.15;;;;;;;;;;5090724;28;20107;-58
2022/08/07 03:24:39;;;;;;;4.85;2.00;;;;;;;;;;5090747;28;20020;-58
2022/08/07 03:27:06;;;;;;;3.33;2.08;;;;;;;;;;5090002;28;20424;-59
2022/08/07 03:29:33;;;;;;;4.07;2.03;;;;;;;;;;5082498;28;20084;-59
2022/08/07 03:32:00;;;;;;;3.42;2.08;;;;;;;;;;5070266;28;20047;-59
2022/08/07 03:34:27;;;;;;;4.70;1.98;;;;;;;;;;5070545;28;20107;-59
2022/08/07 03:36:53;;;;;;;6.45;2.03;;;;;;;;;;5086580;28;20543;-59
2022/08/07 03:39:20;;;;;;;6.55;2.22;;;;;;;;;;5071098;28;20070;-58
2022/08/07 03:41:46;;;;;;;2.58;2.00;;;;;;;;;;5081354;28;20051;-59
2022/08/07 03:44:12;;;;;;;5.93;2.25;;;;;;;;;;5091082;28;20020;-59
2022/08/07 03:46:40;;;;;;;2.95;2.20;;;;;;;;;;5081363;28;20039;-58
2022/08/07 03:49:07;;;;;;;3.35;1.92;;;;;;;;;;5085661;28;20028;-59
2022/08/07 03:51:34;;;;;;;2.65;2.00;;;;;;;;;;5084444;28;20032;-58
2022/08/07 03:54:00;;;;;;;4.38;2.30;;;;;;;;;;5093510;28;20154;-58
2022/08/07 03:56:26;;;;;;;5.50;2.08;;;;;;;;;;5091692;28;20044;-59
2022/08/07 03:58:52;;;;;;;7.13;2.30;;;;;;;;;;5081766;28;20025;-58
2022/08/07 04:01:19;;;;;;;2.90;1.80;;;;;;;;;;5073560;28;20025;-58
2022/08/07 04:03:45;;;;;;;6.18;2.08;;;;;;;;;;5082043;28;20054;-58
2022/08/07 04:06:11;;;;;;;3.80;2.33;;;;;;;;;;5087085;28;20479;-59
2022/08/07 04:08:40;;;;;;;5.63;2.95;;;;;;;;;;5082122;28;20107;-61
2022/08/07 04:11:07;;;;;;;4.40;2.80;;;;;;;;;;5074651;28;20387;-59
2022/08/07 04:13:33;;;;;;;3.42;2.35;;;;;;;;;;5089186;28;20536;-58
2022/08/07 04:16:00;;;;;;;4.07;2.53;;;;;;;;;;5088096;28;20032;-59
2022/08/07 04:18:26;;;;;;;3.50;2.20;;;;;;;;;;5076118;28;20055;-59
2022/08/07 04:20:52;;;;;;;3.35;2.45;;;;;;;;;;5081527;28;20028;-59
2022/08/07 04:23:19;;;;;;;5.43;2.10;;;;;;;;;;5091161;28;20061;-59
2022/08/07 04:25:45;;;;;;;4.32;2.42;;;;;;;;;;5083547;28;20040;-59
2022/08/07 04:28:11;;;;;;;3.85;2.60;;;;;;;;;;5073404;28;20024;-58
2022/08/07 04:30:37;;;;;;;3.97;2.63;;;;;;;;;;5088843;28;20032;-59
2022/08/07 04:33:10;;;;;;;3.47;2.03;;;;;;;;;;5085069;28;20471;-59
2022/08/07 04:35:37;;;;;;;6.32;2.47;;;;;;;;;;5088702;28;20382;-59
2022/08/07 04:38:04;;;;;;;3.67;2.15;;;;;;;;;;5089794;28;20028;-58
2022/08/07 04:40:31;;;;;;;5.70;2.42;;;;;;;;;;5072918;28;20028;-58
2022/08/07 04:42:57;;;;;;;4.40;2.47;;;;;;;;;;5076158;28;20101;-58
2022/08/07 04:45:26;;;;;;;4.80;2.33;;;;;;;;;;5092403;28;20399;-58
2022/08/07 04:48:04;;;;;;;4.22;2.30;;;;;;;;;;5082847;28;20082;-60
2022/08/07 04:50:35;;;;;;;3.35;2.22;;;;;;;;;;5082632;28;20369;-59
2022/08/07 04:53:13;;;;;;;3.45;2.00;;;;;;;;;;5086175;28;20479;-58
2022/08/07 04:55:43;;;;;;;5.80;2.33;;;;;;;;;;5076435;28;20608;-58
2022/08/07 04:58:18;;;;;;;3.40;2.40;;;;;;;;;;5075302;28;20032;-61
2022/08/07 05:00:44;;;;;;;4.05;2.13;;;;;;;;;;5075453;28;20111;-59
2022/08/07 05:03:18;;;;;;;3.35;2.47;;;;;;;;;;5072879;28;20017;-58
2022/08/07 05:05:53;;;;;;;3.97;2.40;;;;;;;;;;5092506;28;20491;-58
2022/08/07 05:08:38;;;;;;;3.13;2.40;;;;;;;;;;5082223;28;20036;-59
2022/08/07 05:11:09;;;;;;;5.50;2.80;;;;;;;;;;5072539;28;20474;-58
2022/08/07 05:13:38;;;;;;;3.10;2.33;;;;;;;;;;5081916;28;20446;-58
2022/08/07 05:16:05;;;;;;;6.38;3.05;;;;;;;;;;5086791;28;20507;-59
2022/08/07 05:18:33;;;;;;;6.28;2.90;;;;;;;;;;5087358;28;20039;-59
2022/08/07 05:21:04;;;;;;;4.78;2.58;;;;;;;;;;5086781;28;20028;-59
2022/08/07 05:23:33;;;;;;;5.05;2.30;;;;;;;;;;5088380;28;20028;-59
2022/08/07 05:26:01;;;;;;;7.90;2.97;;;;;;;;;;5074147;28;20036;-59
2022/08/07 05:28:27;;;;;;;6.90;3.15;;;;;;;;;;5083299;28;20111;-59
2022/08/07 05:30:53;;;;;;;8.27;3.45;;;;;;;;;;5076014;28;20036;-59
2022/08/07 05:33:20;;;;;;;9.25;4.20;;;;;;;;;;5083502;28;20506;-59
2022/08/07 05:35:47;;;;;;;7.63;4.00;;;;;;;;;;5086319;28;20032;-59
2022/08/07 05:38:14;;;;;;;7.18;3.13;;;;;;;;;;5081557;28;20051;-58
2022/08/07 05:40:40;;;;;;;6.35;3.00;;;;;;;;;;5092026;28;20050;-58
2022/08/07 05:43:06;;;;;;;5.50;2.70;;;;;;;;;;5080706;28;20108;-59
2022/08/07 05:45:32;;;;;;;5.53;2.83;;;;;;;;;;5076237;28;20028;-58
2022/08/07 05:47:59;;;;;;;3.85;2.40;;;;;;;;;;5089246;28;20646;-59
2022/08/07 05:50:25;;;;;;;4.13;2.53;;;;;;;;;;5084267;28;20036;-61
2022/08/07 05:52:51;;;;;;;7.63;2.50;;;;;;;;;;5076702;28;20163;-58
2022/08/07 05:55:17;;;;;;;5.10;2.58;;;;;;;;;;5085333;28;20028;-59
2022/08/07 05:57:45;;;;;;;7.68;2.30;;;;;;;;;;5079024;28;20107;-58
2022/08/07 06:00:11;;;;;;;4.47;2.38;;;;;;;;;;5080440;28;20024;-61
2022/08/07 06:02:38;;;;;;;4.43;2.38;;;;;;;;;;5085152;28;20440;-59
2022/08/07 06:05:06;;;;;;;3.83;2.17;;;;;;;;;;5084726;28;20051;-58
2022/08/07 06:07:33;;;;;;;3.28;2.25;;;;;;;;;;5081722;28;20493;-61
2022/08/07 06:09:59;;;;;;;5.60;2.78;;;;;;;;;;5090107;28;20028;-58
2022/08/07 06:12:25;;;;;;;6.00;2.45;;;;;;;;;;5084386;28;20028;-58
2022/08/07 06:14:52;;;;;;;3.65;2.40;;;;;;;;;;5076908;28;20025;-58
2022/08/07 06:17:19;;;;;;;4.45;2.35;;;;;;;;;;5079689;28;20114;-60
2022/08/07 06:19:45;;;;;;;4.85;2.45;;;;;;;;;;5087375;28;20030;-60
2022/08/07 06:22:11;;;;;;;8.98;3.00;;;;;;;;;;5090765;28;20498;-61
2022/08/07 06:24:40;;;;;;;5.45;3.17;;;;;;;;;;5085809;28;20085;-60
2022/08/07 06:27:06;;;;;;;5.63;2.60;;;;;;;;;;5082566;28;20085;-61
2022/08/07 06:29:35;;;;;;;6.03;3.25;;;;;;;;;;5085571;28;20111;-61
2022/08/07 06:32:01;;;;;;;8.85;4.43;;;;;;;;;;5079820;28;20037;-61
2022/08/07 06:34:27;;;;;;;16.33;6.38;;;;;;;;;;5088704;28;20395;-59
2022/08/07 06:36:54;;;;;;;11.45;5.85;;;;;;;;;;5091279;28;20028;-60
2022/08/07 06:39:20;;;;;;;11.27;5.85;;;;;;;;;;5091037;28;20103;-60
2022/08/07 06:41:49;;;;;;;10.05;5.28;;;;;;;;;;5078817;28;20089;-60
2022/08/07 06:44:15;;;;;;;13.05;5.90;;;;;;;;;;5084862;28;20127;-61
2022/08/07 06:46:41;;;;;;;10.35;4.55;;;;;;;;;;5071473;28;20484;-61
2022/08/07 06:49:07;;;;;;;9.35;3.72;;;;;;;;;;5091110;28;20038;-60
2022/08/07 06:51:35;;;;;;;7.18;2.80;;;;;;;;;;5090323;28;20032;-60
2022/08/07 06:54:03;;;;;;;6.07;2.72;;;;;;;;;;5075085;28;20043;-60
2022/08/07 06:56:42;;;;;;;10.45;2.97;;;;;;;;;;5074099;28;20530;-60
2022/08/07 06:59:10;;;;;;;5.93;2.28;;;;;;;;;;5083439;28;20085;-60
2022/08/07 07:01:36;;;;;;;8.88;2.20;;;;;;;;;;5086727;28;20472;-60
2022/08/07 07:04:03;;;;;;;6.13;1.63;;;;;;;;;;5081104;28;20112;-60
2022/08/07 07:06:30;;;;;;;3.92;1.80;;;;;;;;;;5074396;28;20021;-60
2022/08/07 07:08:56;;;;;;;2.75;1.48;;;;;;;;;;5081987;28;20021;-61
2022/08/07 07:11:22;;;;;;;6.25;1.40;;;;;;;;;;5081103;28;20028;-60
2022/08/07 07:13:50;;;;;;;2.75;1.27;;;;;;;;;;5085781;28;20075;-60
2022/08/07 07:16:20;;;;;;;6.03;1.65;;;;;;;;;;5083873;28;20043;-60
2022/08/07 07:18:52;;;;;;;1.45;0.93;;;;;;;;;;5079667;28;20037;-61
2022/08/07 07:21:29;;;;;;;2.70;1.35;;;;;;;;;;5088044;28;20042;-60
2022/08/07 07:23:55;;;;;;;3.00;1.23;;;;;;;;;;5093309;28;20032;-60
2022/08/07 07:26:22;;;;;;;2.22;1.42;;;;;;;;;;5088601;28;20536;-60
2022/08/07 07:28:53;;;;;;;2.17;1.05;;;;;;;;;;5084015;28;20055;-60
2022/08/07 07:31:22;;;;;;;3.10;1.35;;;;;;;;;;5080048;28;20024;-60
2022/08/07 07:33:51;;;;;;;4.45;1.33;;;;;;;;;;5082768;28;20024;-60
2022/08/07 07:36:18;;;;;;;2.65;1.40;;;;;;;;;;5085442;28;20527;-61
2022/08/07 07:38:44;;;;;;;2.50;1.25;;;;;;;;;;5093413;28;20088;-61
2022/08/07 07:41:11;;;;;;;2.08;1.15;;;;;;;;;;5088316;28;20031;-60
2022/08/07 07:43:41;;;;;;;3.60;1.30;;;;;;;;;;5085822;28;20028;-60
2022/08/07 07:46:08;;;;;;;6.22;1.30;;;;;;;;;;5091234;28;20028;-60
2022/08/07 07:48:34;;;;;;;4.93;2.47;;;;;;;;;;5090671;28;20032;-61
2022/08/07 07:51:01;;;;;;;2.22;1.45;;;;;;;;;;5082498;28;20037;-60
2022/08/07 07:53:28;;;;;;;5.68;1.23;;;;;;;;;;5089303;28;20036;-60
2022/08/07 07:55:56;;;;;;;5.20;1.23;;;;;;;;;;5086883;28;20040;-59
2022/08/07 07:58:23;;;;;;;1.83;1.05;;;;;;;;;;5073394;28;20025;-60
2022/08/07 08:00:49;;;;;;;1.70;1.05;;;;;;;;;;5079747;28;20392;-60
2022/08/07 08:03:16;;;;;;;2.60;1.10;;;;;;;;;;5079278;28;20052;-60
2022/08/07 08:05:42;;;;;;;4.43;0.90;;;;;;;;;;5079412;28;20040;-60
2022/08/07 08:08:09;;;;;;;5.80;0.90;;;;;;;;;;5091874;28;20438;-60
2022/08/07 08:10:36;;;;;;;3.50;0.90;;;;;;;;;;5082418;28;20034;-57
2022/08/07 08:13:02;;;;;;;1.65;0.70;;;;;;;;;;5092533;28;20024;-58
2022/08/07 08:15:29;;;;;;;1.55;0.80;;;;;;;;;;5083666;28;20028;-61
2022/08/07 08:17:56;;;;;;;2.90;0.82;;;;;;;;;;5086149;28;20468;-60
2022/08/07 08:20:23;;;;;;;2.28;0.77;;;;;;;;;;5080627;28;20032;-58
2022/08/07 08:28:26;;;;;;;2.95;0.70;;;;;;;;;;5091210;28;20180;-59
2022/08/07 08:30:53;;;;;;;3.83;0.80;;;;;;;;;;5091532;28;20114;-59
2022/08/07 08:33:19;;;;;;;1.20;0.70;;;;;;;;;;5089024;28;20024;-59
2022/08/07 08:35:47;;;;;;;3.17;0.90;;;;;;;;;;5089159;28;20475;-60
2022/08/07 08:38:14;;;;;;;5.50;0.70;;;;;;;;;;5089703;28;20437;-61
2022/08/07 08:40:43;;;;;;;2.67;0.77;;;;;;;;;;5084418;28;20024;-60
2022/08/07 08:43:09;;;;;;;1.67;0.73;;;;;;;;;;5089291;28;20437;-60
2022/08/07 08:45:52;;;;;;;3.28;1.00;;;;;;;;;;5091614;28;20020;-59
2022/08/07 08:48:30;;;;;;;2.03;0.90;;;;;;;;;;5089390;28;20025;-60
2022/08/07 08:50:59;;;;;;;1.63;0.85;;;;;;;;;;5092629;28;20024;-60
2022/08/07 08:53:34;;;;;;;2.58;0.80;;;;;;;;;;5086624;28;20035;-60
2022/08/07 08:56:05;;;;;;;2.67;1.10;;;;;;;;;;5087227;28;20048;-59
2022/08/07 08:58:35;;;;;;;4.75;1.00;;;;;;;;;;5090851;28;20330;-59
2022/08/07 09:01:21;;;;;;;4.10;0.90;;;;;;;;;;5090346;28;20400;-58
2022/08/07 09:03:55;;;;;;;4.50;1.35;;;;;;;;;;5042796;28;20115;-59
2022/08/07 09:06:30;;;;;;;3.53;1.23;;;;;;;;;;5090746;28;20028;-59
2022/08/07 09:09:06;;;;;;;2.50;1.05;;;;;;;;;;5085711;28;20033;-59
2022/08/07 09:11:41;;;;;;;2.42;1.00;;;;;;;;;;5081687;28;20039;-59
2022/08/07 09:14:16;;;;;;;1.88;0.80;;;;;;;;;;5088705;28;20484;-59
2022/08/07 09:16:45;;;;;;;2.65;1.10;;;;;;;;;;5079737;28;20045;-59
2022/08/07 09:19:29;;;;;;;1.83;0.85;;;;;;;;;;5083421;28;20501;-59
2022/08/07 09:22:06;;;;;;;2.10;1.40;;;;;;;;;;5084309;28;20024;-59
2022/08/07 09:24:32;;;;;;;1.45;0.93;;;;;;;;;;5087629;28;20020;-59
2022/08/07 09:27:16;;;;;;;1.67;1.00;;;;;;;;;;5087208;28;20070;-58
2022/08/07 09:29:48;;;;;;;4.40;0.68;;;;;;;;;;5090037;28;20024;-59
2022/08/07 09:32:25;;;;;;;2.50;0.75;;;;;;;;;;5090590;28;20819;-59
2022/08/07 09:35:04;;;;;;;2.05;0.80;;;;;;;;;;5083556;28;20092;-60
2022/08/07 09:37:36;;;;;;;2.38;1.05;;;;;;;;;;5085191;28;20122;-61
2022/08/07 09:40:13;;;;;;;2.83;0.77;;;;;;;;;;5088110;28;20032;-58
2022/08/07 09:42:58;;;;;;;4.18;0.85;;;;;;;;;;5085041;28;20039;-59
2022/08/07 09:45:43;;;;;;;2.20;0.80;;;;;;;;;;5082398;28;20025;-59
2022/08/07 09:48:22;;;;;;;3.95;1.00;;;;;;;;;;5085674;28;20035;-60
2022/08/07 09:50:48;;;;;;;1.10;0.45;;;;;;;;;;5091551;28;20121;-59
2022/08/07 09:53:15;;;;;;;1.50;0.50;;;;;;;;;;5087375;28;21811;-59
2022/08/07 09:55:47;;;;;;;3.05;0.73;;;;;;;;;;5090081;28;20570;-59
2022/08/07 09:58:29;;;;;;;3.40;0.57;;;;;;;;;;5087985;28;20487;-59
2022/08/07 10:01:08;;;;;;;2.60;0.63;;;;;;;;;;5081627;28;20036;-60
2022/08/07 10:03:50;;;;;;;1.38;0.60;;;;;;;;;;5084914;28;20712;-60
2022/08/07 10:06:16;;;;;;;1.10;0.63;;;;;;;;;;5088211;28;20042;-59
2022/08/07 10:08:52;;;;;;;3.13;0.70;;;;;;;;;;5087124;28;20027;-60
2022/08/07 10:11:44;;;;;;;3.10;0.90;;;;;;;;;;5085143;28;20035;-60
2022/08/07 10:14:25;;;;;;;3.33;0.60;;;;;;;;;;5088846;28;20023;-59
2022/08/07 10:17:05;;;;;;;0.80;0.57;;;;;;;;;;5084390;28;20480;-59
2022/08/07 10:19:46;;;;;;;1.60;0.70;;;;;;;;;;5080548;28;20037;-60
2022/08/07 10:22:32;;;;;;;3.03;0.80;;;;;;;;;;5087767;28;20023;-59
2022/08/07 10:25:04;;;;;;;1.73;0.43;;;;;;;;;;5081860;28;20376;-59
2022/08/07 10:27:41;;;;;;;3.40;0.63;;;;;;;;;;5089618;28;20028;-59
2022/08/07 10:30:09;;;;;;;1.88;0.50;;;;;;;;;;5089624;28;20387;-59
2022/08/07 10:32:41;;;;;;;1.88;0.52;;;;;;;;;;5090220;28;20119;-60
2022/08/07 10:35:12;;;;;;;1.92;0.70;;;;;;;;;;5083135;28;20036;-59
2022/08/07 10:37:46;;;;;;;1.55;0.70;;;;;;;;;;5079896;28;20119;-60
2022/08/07 10:40:25;;;;;;;3.03;0.70;;;;;;;;;;5089053;28;20024;-59
2022/08/07 10:42:58;;;;;;;4.00;0.88;;;;;;;;;;5089305;28;20062;-59
2022/08/07 10:45:30;;;;;;;1.45;0.65;;;;;;;;;;5083343;28;20476;-59
2022/08/07 10:48:06;;;;;;;2.03;0.63;;;;;;;;;;5083176;28;20032;-60
2022/08/07 10:50:41;;;;;;;2.33;0.68;;;;;;;;;;5090072;28;20054;-59
2022/08/07 10:53:28;;;;;;;1.13;0.60;;;;;;;;;;5089946;28;20431;-60
2022/08/07 10:56:06;;;;;;;2.47;0.60;;;;;;;;;;5085217;28;20048;-59
2022/08/07 10:58:46;;;;;;;1.67;0.70;;;;;;;;;;5088915;28;20111;-59
2022/08/07 11:01:30;;;;;;;2.10;0.60;;;;;;;;;;5089895;28;20474;-59
2022/08/07 11:04:07;;;;;;;1.50;0.80;;;;;;;;;;5087611;28;20020;-58
2022/08/07 11:06:40;;;;;;;4.07;1.00;;;;;;;;;;5089412;28;20036;-59
2022/08/07 11:09:06;;;;;;;0.60;0.50;;;;;;;;;;5086037;28;20040;-60
2022/08/07 11:11:36;;;;;;;1.83;0.73;;;;;;;;;;5087004;28;20498;-60
2022/08/07 11:14:04;;;;;;;1.20;0.40;;;;;;;;;;5080199;28;20381;-60
2022/08/07 11:16:35;;;;;;;1.75;0.68;;;;;;;;;;5087899;28;20032;-60
2022/08/07 11:19:09;;;;;;;1.38;0.47;;;;;;;;;;5080602;28;20024;-60
2022/08/07 11:21:50;;;;;;;5.80;1.13;;;;;;;;;;5084283;28;20024;-60
2022/08/07 11:24:28;;;;;;;1.10;0.52;;;;;;;;;;5083594;28;20024;-59
2022/08/07 11:27:01;;;;;;;2.60;0.60;;;;;;;;;;5077333;28;20046;-60
2022/08/07 11:29:43;;;;;;;1.98;0.60;;;;;;;;;;5081887;28;20036;-61
2022/08/07 11:32:16;;;;;;;2.03;1.05;;;;;;;;;;5081680;28;20025;-59
2022/08/07 11:34:41;;;;;;;1.52;0.65;;;;;;;;;;5088078;28;20077;-60
2022/08/07 11:37:26;;;;;;;5.60;0.70;;;;;;;;;;5083959;28;20032;-59
2022/08/07 11:40:17;;;;;;;5.35;1.00;;;;;;;;;;5086854;28;20051;-59
2022/08/07 11:43:00;;;;;;;2.35;0.85;;;;;;;;;;5077692;28;20029;-60
2022/08/07 11:45:44;;;;;;;4.20;0.88;;;;;;;;;;5089416;28;20028;-59
2022/08/07 11:48:30;;;;;;;2.97;0.60;;;;;;;;;;5083775;28;20083;-60
2022/08/07 11:51:03;;;;;;;4.22;0.60;;;;;;;;;;5087218;28;20050;-60
2022/08/07 11:53:48;;;;;;;2.00;0.70;;;;;;;;;;5080604;28;20404;-59
2022/08/07 11:56:32;;;;;;;0.80;0.60;;;;;;;;;;5076324;28;20506;-59
2022/08/07 11:59:10;;;;;;;2.75;0.60;;;;;;;;;;5083925;28;20479;-60
2022/08/07 12:02:02;;;;;;;1.05;0.50;;;;;;;;;;5083413;28;20036;-59
2022/08/07 12:04:42;;;;;;;3.58;0.57;;;;;;;;;;5079655;28;20035;-60
2022/08/07 12:07:12;;;;;;;0.85;0.60;;;;;;;;;;5090718;28;20035;-60
2022/08/07 12:10:04;;;;;;;1.80;0.50;;;;;;;;;;5087119;28;20025;-60
2022/08/07 12:12:40;;;;;;;3.75;1.33;;;;;;;;;;5066851;28;20460;-60
2022/08/07 12:15:17;;;;;;;6.13;0.70;;;;;;;;;;5090912;28;20028;-60
2022/08/07 12:17:52;;;;;;;1.50;0.65;;;;;;;;;;5088752;28;20029;-59
2022/08/07 12:20:22;;;;;;;0.82;0.50;;;;;;;;;;5090267;28;20032;-59
2022/08/07 12:22:55;;;;;;;1.30;0.40;;;;;;;;;;5090580;28;20024;-60
2022/08/07 12:25:52;;;;;;;1.48;0.55;;;;;;;;;;5086303;28;20032;-60
2022/08/07 12:28:21;;;;;;;2.05;0.68;;;;;;;;;;5080271;28;20016;-60
2022/08/07 12:30:50;;;;;;;2.30;0.70;;;;;;;;;;5092924;28;20031;-60
2022/08/07 12:33:18;;;;;;;0.68;0.52;;;;;;;;;;5085643;28;20059;-60
2022/08/07 12:35:49;;;;;;;1.25;0.43;;;;;;;;;;5092491;28;20475;-60
2022/08/07 12:38:15;;;;;;;3.22;0.50;;;;;;;;;;5086677;28;20532;-59
2022/08/07 12:40:42;;;;;;;1.48;0.38;;;;;;;;;;5089710;28;20032;-59
2022/08/07 12:43:10;;;;;;;2.92;0.35;;;;;;;;;;5085598;28;20507;-60
2022/08/07 12:45:51;;;;;;;1.75;0.60;;;;;;;;;;5084229;28;20043;-59
2022/08/07 12:48:36;;;;;;;1.10;0.30;;;;;;;;;;5081097;28;20035;-60
2022/08/07 12:51:13;;;;;;;0.82;0.50;;;;;;;;;;5085853;28;20548;-60
2022/08/07 12:53:43;;;;;;;2.13;0.50;;;;;;;;;;5073658;28;20035;-59
2022/08/07 12:56:14;;;;;;;4.15;0.70;;;;;;;;;;5092363;28;20040;-59
2022/08/07 12:58:43;;;;;;;0.98;0.50;;;;;;;;;;5089703;28;20506;-57
2022/08/07 13:01:18;;;;;;;3.45;0.52;;;;;;;;;;5075757;28;20162;-60
2022/08/07 13:03:51;;;;;;;3.58;0.50;;;;;;;;;;5084387;28;20096;-58
2022/08/07 13:06:36;;;;;;;2.92;0.63;;;;;;;;;;5090446;28;20365;-58
2022/08/07 13:09:17;;;;;;;1.58;0.40;;;;;;;;;;5092136;28;20391;-58
2022/08/07 13:11:57;;;;;;;4.05;0.50;;;;;;;;;;5081203;28;20025;-59
2022/08/07 13:14:42;;;;;;;4.13;0.63;;;;;;;;;;5087497;28;20503;-58
2022/08/07 13:17:26;;;;;;;2.70;0.60;;;;;;;;;;5089227;28;20028;-58
2022/08/07 13:19:59;;;;;;;3.60;0.50;;;;;;;;;;5084403;28;20124;-58
2022/08/07 13:22:44;;;;;;;1.80;0.50;;;;;;;;;;5087275;28;20547;-58
2022/08/07 13:25:12;;;;;;;0.90;0.50;;;;;;;;;;5091547;28;20028;-58
2022/08/07 13:27:42;;;;;;;2.22;0.35;;;;;;;;;;5089959;28;20036;-58
2022/08/07 13:30:08;;;;;;;0.93;0.32;;;;;;;;;;5087819;28;20086;-58
2022/08/07 13:32:47;;;;;;;1.33;0.43;;;;;;;;;;5089932;28;20024;-58
2022/08/07 13:35:17;;;;;;;2.05;0.40;;;;;;;;;;5090268;28;20020;-59
2022/08/07 13:38:09;;;;;;;1.40;0.40;;;;;;;;;;5088701;28;20501;-58
2022/08/07 13:40:54;;;;;;;2.28;0.80;;;;;;;;;;5082063;28;20204;-58
2022/08/07 13:43:21;;;;;;;1.70;0.50;;;;;;;;;;5084991;28;20028;-58
2022/08/07 13:45:52;;;;;;;3.80;0.75;;;;;;;;;;5085072;28;20016;-58
2022/08/07 13:48:20;;;;;;;1.65;0.43;;;;;;;;;;5085671;28;20778;-59
2022/08/07 13:50:48;;;;;;;2.20;0.93;;;;;;;;;;5088295;28;20028;-58
2022/08/07 13:53:20;;;;;;;3.13;0.60;;;;;;;;;;5083320;28;20085;-59
2022/08/07 13:55:47;;;;;;;1.15;0.32;;;;;;;;;;5089377;28;20065;-59
2022/08/07 14:01:01;;;;;;;7.03;0.57;;;;;;;;;;5086216;28;20221;-59
2022/08/07 14:03:31;;;;;;;1.00;0.40;;;;;;;;;;5088748;28;20028;-59
2022/08/07 14:05:59;;;;;;;2.65;0.60;;;;;;;;;;5087203;28;20064;-59
2022/08/07 14:08:28;;;;;;;1.35;0.50;;;;;;;;;;5088920;28;20027;-59
2022/08/07 14:10:55;;;;;;;1.13;0.50;;;;;;;;;;5085156;28;20032;-60
2022/08/07 14:13:26;;;;;;;1.67;0.70;;;;;;;;;;5089472;28;20024;-59
2022/08/07 14:16:00;;;;;;;1.95;0.70;;;;;;;;;;5089506;28;20028;-60
2022/08/07 14:18:28;;;;;;;2.83;0.77;;;;;;;;;;5086139;28;20414;-58
2022/08/07 14:21:02;;;;;;;0.95;0.43;;;;;;;;;;5088063;28;20036;-58
2022/08/07 14:23:28;;;;;;;1.30;0.60;;;;;;;;;;5091378;28;20480;-58
2022/08/07 14:26:00;;;;;;;3.13;0.45;;;;;;;;;;5086780;28;20089;-58
2022/08/07 14:28:28;;;;;;;1.45;0.47;;;;;;;;;;5088227;28;20059;-59
2022/08/07 14:30:54;;;;;;;6.22;0.60;;;;;;;;;;5081788;28;20032;-58
2022/08/07 14:33:21;;;;;;;1.25;0.38;;;;;;;;;;5088210;28;20028;-58
2022/08/07 14:35:47;;;;;;;1.75;0.43;;;;;;;;;;5073487;28;20033;-59
2022/08/07 14:38:14;;;;;;;1.20;0.38;;;;;;;;;;5083311;28;20076;-59
2022/08/07 14:40:42;;;;;;;1.92;0.30;;;;;;;;;;5086117;28;20032;-59
2022/08/07 14:43:09;;;;;;;0.55;0.20;;;;;;;;;;5088982;28;20019;-59
2022/08/07 14:45:43;;;;;;;0.82;0.43;;;;;;;;;;5075437;28;20039;-59
2022/08/07 14:48:09;;;;;;;1.95;0.43;;;;;;;;;;5083824;28;20107;-58
2022/08/07 14:50:40;;;;;;;1.75;0.30;;;;;;;;;;5082805;28;20496;-59
2022/08/07 14:53:07;;;;;;;0.90;0.22;;;;;;;;;;5084491;28;20035;-59
2022/08/07 14:55:34;;;;;;;2.17;0.40;;;;;;;;;;5086651;28;20024;-59
2022/08/07 14:58:01;;;;;;;1.58;0.40;;;;;;;;;;5087345;28;20027;-59
2022/08/07 15:00:31;;;;;;;2.42;0.40;;;;;;;;;;5088180;28;20023;-58
2022/08/07 15:02:58;;;;;;;0.52;0.30;;;;;;;;;;5083252;28;20532;-56
2022/08/07 15:05:26;;;;;;;0.90;0.32;;;;;;;;;;5081692;28;20034;-59
2022/08/07 15:07:53;;;;;;;0.75;0.35;;;;;;;;;;5086049;28;20036;-58
2022/08/07 15:10:21;;;;;;;2.95;0.60;;;;;;;;;;5084268;28;20108;-59